createdAt,value
2019-05-21T00:02:15.464Z,10.80
2019-05-21T00:04:45.765Z,10.80
2019-05-21T00:07:16.128Z,10.80
2019-05-21T00:09:46.307Z,10.70
2019-05-21T00:12:16.533Z,10.90
2019-05-21T00:14:47.101Z,10.90
2019-05-21T00:17:17.370Z,10.90
2019-05-21T00:19:47.644Z,10.80
2019-05-21T00:22:17.862Z,10.80
2019-05-21T00:24:48.620Z,10.80
2019-05-21T00:27:18.871Z,10.80
2019-05-21T00:30:25.002Z,10.70
2019-05-21T00:33:31.334Z,10.80
2019-05-21T00:36:39.040Z,10.70
2019-05-21T00:39:45.351Z,11.00
2019-05-21T00:42:19.601Z,10.70
2019-05-21T00:44:51.773Z,10.70
2019-05-21T00:47:22.200Z,10.90
2019-05-21T00:49:52.401Z,10.80
2019-05-21T00:52:22.691Z,10.80
2019-05-21T00:54:53.031Z,10.80
2019-05-21T00:57:24.001Z,10.70
2019-05-21T00:59:54.510Z,10.70
2019-05-21T01:02:24.735Z,10.90
2019-05-21T01:05:00.817Z,10.70
2019-05-21T01:07:27.831Z,11.00
2019-05-21T01:09:58.035Z,10.70
2019-05-21T01:12:28.864Z,10.90
2019-05-21T01:14:59.991Z,10.70
2019-05-21T01:17:30.386Z,10.70
2019-05-21T01:20:04.081Z,10.70
2019-05-21T01:22:34.773Z,10.90
2019-05-21T01:25:05.962Z,10.80
2019-05-21T01:27:36.177Z,10.80
2019-05-21T01:30:06.923Z,10.80
2019-05-21T01:32:37.631Z,10.60
2019-05-21T01:35:16.572Z,10.70
2019-05-21T01:37:40.016Z,10.70
2019-05-21T01:40:10.543Z,11.10
2019-05-21T01:42:41.091Z,11.10
2019-05-21T01:45:11.463Z,11.20
2019-05-21T01:47:41.641Z,11.10
2019-05-21T01:50:12.168Z,10.90
2019-05-21T01:52:43.163Z,10.90
2019-05-21T01:55:13.384Z,10.90
2019-05-21T01:57:43.567Z,10.90
2019-05-21T02:00:14.199Z,11.20
2019-05-21T02:02:44.490Z,11.00
2019-05-21T02:05:14.891Z,11.10
2019-05-21T02:07:45.100Z,11.10
2019-05-21T02:10:15.323Z,11.10
2019-05-21T02:12:45.969Z,10.90
2019-05-21T02:15:16.689Z,11.40
2019-05-21T02:17:46.883Z,11.30
2019-05-21T02:20:17.134Z,11.30
2019-05-21T02:22:47.362Z,11.20
2019-05-21T02:25:17.861Z,11.20
2019-05-21T02:27:48.141Z,11.20
2019-05-21T02:30:19.819Z,11.10
2019-05-21T02:32:50.383Z,11.20
2019-05-21T02:35:20.927Z,11.30
2019-05-21T02:37:52.566Z,11.20
2019-05-21T02:40:22.948Z,11.10
2019-05-21T02:42:53.331Z,11.50
2019-05-21T02:45:23.598Z,11.50
2019-05-21T02:47:54.607Z,11.10
2019-05-21T02:50:25.279Z,11.20
2019-05-21T02:52:55.497Z,11.10
2019-05-21T02:55:25.684Z,11.20
2019-05-21T02:57:56.185Z,11.00
2019-05-21T03:00:38.365Z,11.00
2019-05-21T03:03:07.248Z,11.00
2019-05-21T03:05:45.679Z,11.00
2019-05-21T03:08:15.986Z,10.90
2019-05-21T03:10:46.290Z,10.90
2019-05-21T03:13:16.489Z,10.70
2019-05-21T03:15:46.695Z,10.80
2019-05-21T03:18:16.938Z,10.80
2019-05-21T03:20:47.673Z,10.80
2019-05-21T03:23:18.248Z,10.90
2019-05-21T03:25:48.548Z,10.80
2019-05-21T03:28:22.888Z,11.10
2019-05-21T03:30:53.541Z,11.00
2019-05-21T03:33:25.899Z,10.90
2019-05-21T03:35:56.378Z,11.10
2019-05-21T03:38:29.158Z,11.10
2019-05-21T03:40:59.978Z,11.00
2019-05-21T03:43:30.515Z,11.00
2019-05-21T03:46:00.797Z,10.90
2019-05-21T03:48:31.409Z,10.80
2019-05-21T03:51:01.755Z,10.80
2019-05-21T03:53:32.028Z,11.00
2019-05-21T03:56:02.266Z,11.10
2019-05-21T03:58:32.456Z,11.20
2019-05-21T04:01:02.746Z,10.90
2019-05-21T04:03:32.998Z,11.20
2019-05-21T04:06:04.257Z,10.90
2019-05-21T04:08:34.757Z,11.20
2019-05-21T04:11:05.289Z,10.70
2019-05-21T04:13:35.635Z,10.70
2019-05-21T04:16:12.318Z,11.10
2019-05-21T04:18:49.916Z,10.90
2019-05-21T04:21:20.558Z,11.20
2019-05-21T04:23:51.040Z,10.80
2019-05-21T04:26:21.338Z,10.90
2019-05-21T04:28:51.518Z,11.20
2019-05-21T04:31:22.223Z,11.10
2019-05-21T04:33:52.835Z,11.20
2019-05-21T04:36:23.145Z,11.10
2019-05-21T04:38:53.312Z,11.00
2019-05-21T04:41:23.912Z,11.00
2019-05-21T04:43:54.953Z,11.10
2019-05-21T04:46:25.223Z,11.00
2019-05-21T04:48:55.414Z,11.00
2019-05-21T04:51:25.692Z,11.20
2019-05-21T04:53:55.908Z,11.00
2019-05-21T04:56:26.199Z,10.90
2019-05-21T04:58:56.400Z,10.90
2019-05-21T05:01:26.643Z,10.70
2019-05-21T05:03:56.897Z,11.00
2019-05-21T05:06:27.480Z,11.00
2019-05-21T05:08:57.735Z,11.10
2019-05-21T05:11:28.654Z,11.10
2019-05-21T05:13:59.209Z,11.10
2019-05-21T05:16:29.416Z,11.20
2019-05-21T05:18:59.953Z,11.00
2019-05-21T05:21:30.713Z,11.00
2019-05-21T05:24:00.944Z,11.10
2019-05-21T05:26:31.307Z,11.00
2019-05-21T05:29:02.293Z,11.00
2019-05-21T05:31:32.593Z,11.10
2019-05-21T05:34:02.871Z,11.10
2019-05-21T05:36:33.068Z,11.20
2019-05-21T05:39:05.305Z,11.10
2019-05-21T05:41:36.795Z,11.20
2019-05-21T05:44:07.415Z,11.40
2019-05-21T05:46:37.968Z,11.40
2019-05-21T05:49:13.882Z,11.40
2019-05-21T05:51:44.158Z,11.50
2019-05-21T05:54:14.372Z,11.40
2019-05-21T05:56:45.010Z,11.40
2019-05-21T05:59:15.224Z,11.40
2019-05-21T06:01:45.882Z,11.50
2019-05-21T06:04:16.143Z,11.30
2019-05-21T06:06:47.155Z,11.40
2019-05-21T06:09:17.373Z,11.40
2019-05-21T06:11:47.904Z,11.50
2019-05-21T06:14:18.306Z,11.50
2019-05-21T06:16:48.622Z,11.40
2019-05-21T06:19:18.845Z,11.60
2019-05-21T06:21:49.411Z,12.00
2019-05-21T06:24:19.897Z,11.70
2019-05-21T06:26:50.534Z,11.70
2019-05-21T06:29:20.882Z,11.90
2019-05-21T06:31:51.348Z,11.90
2019-05-21T06:34:21.576Z,12.00
2019-05-21T06:36:52.354Z,12.20
2019-05-21T06:39:23.035Z,12.40
2019-05-21T06:41:53.787Z,12.60
2019-05-21T06:44:24.017Z,12.40
2019-05-21T06:46:54.783Z,12.20
2019-05-21T06:49:25.499Z,12.10
2019-05-21T06:51:55.974Z,12.40
2019-05-21T06:54:26.545Z,12.10
2019-05-21T06:56:57.102Z,12.10
2019-05-21T06:59:27.283Z,12.10
2019-05-21T07:01:57.870Z,12.10
2019-05-21T07:04:28.483Z,12.20
2019-05-21T07:07:00.437Z,12.30
2019-05-21T07:09:30.711Z,12.70
2019-05-21T07:12:01.215Z,12.40
2019-05-21T07:14:31.826Z,12.80
2019-05-21T07:17:02.106Z,12.50
2019-05-21T07:19:32.776Z,12.40
2019-05-21T07:22:12.752Z,12.60
2019-05-21T07:24:35.514Z,12.70
2019-05-21T07:27:05.778Z,12.70
2019-05-21T07:29:36.120Z,12.70
2019-05-21T07:32:06.319Z,12.90
2019-05-21T07:34:36.511Z,12.70
2019-05-21T07:37:06.922Z,12.80
2019-05-21T07:39:37.078Z,12.70
2019-05-21T07:42:07.598Z,12.70
2019-05-21T07:44:37.851Z,12.80
2019-05-21T07:47:08.547Z,13.00
2019-05-21T07:49:39.356Z,13.20
2019-05-21T07:52:09.778Z,13.40
2019-05-21T07:54:43.335Z,13.40
2019-05-21T07:57:13.901Z,13.30
2019-05-21T07:59:44.079Z,13.30
2019-05-21T08:02:14.355Z,13.20
2019-05-21T08:04:44.847Z,13.30
2019-05-21T08:07:15.221Z,13.40
2019-05-21T08:09:45.449Z,13.60
2019-05-21T08:12:35.364Z,13.60
2019-05-21T08:14:47.635Z,13.80
2019-05-21T08:17:17.829Z,13.60
2019-05-21T08:19:48.087Z,13.60
2019-05-21T08:22:18.774Z,13.60
2019-05-21T08:24:49.186Z,13.40
2019-05-21T08:27:19.378Z,13.40
2019-05-21T08:29:49.541Z,13.80
2019-05-21T08:32:19.783Z,14.30
2019-05-21T08:34:50.099Z,14.20
2019-05-21T08:37:20.749Z,14.30
2019-05-21T08:39:50.989Z,14.40
2019-05-21T08:42:21.224Z,14.40
2019-05-21T08:44:51.812Z,14.50
2019-05-21T08:47:24.542Z,14.40
2019-05-21T08:49:54.762Z,14.30
2019-05-21T08:52:24.969Z,14.50
2019-05-21T08:55:05.911Z,14.30
2019-05-21T08:57:27.246Z,14.40
2019-05-21T08:59:57.816Z,14.20
2019-05-21T09:02:28.183Z,14.10
2019-05-21T09:04:59.222Z,14.10
2019-05-21T09:07:30.002Z,14.20
2019-05-21T09:10:00.233Z,14.30
2019-05-21T09:12:30.709Z,14.30
2019-05-21T09:15:01.697Z,14.30
2019-05-21T09:17:31.972Z,14.10
2019-05-21T09:20:02.827Z,14.30
2019-05-21T09:22:33.861Z,14.40
2019-05-21T09:25:05.121Z,14.50
2019-05-21T09:27:35.833Z,14.40
2019-05-21T09:30:07.381Z,14.60
2019-05-21T09:32:38.519Z,14.60
2019-05-21T09:35:10.822Z,14.60
2019-05-21T09:37:41.423Z,14.60
2019-05-21T09:40:12.167Z,14.90
2019-05-21T09:42:45.263Z,14.90
2019-05-21T09:45:14.690Z,14.70
2019-05-21T09:47:44.972Z,14.70
2019-05-21T09:50:15.311Z,14.70
2019-05-21T09:52:45.921Z,14.90
2019-05-21T09:55:16.353Z,14.80
2019-05-21T09:57:58.985Z,14.90
2019-05-21T10:00:57.475Z,14.80
2019-05-21T10:03:30.323Z,14.60
2019-05-21T10:06:01.006Z,14.70
2019-05-21T10:08:31.386Z,14.60
2019-05-21T10:11:01.609Z,14.70
2019-05-21T10:13:31.848Z,14.80
2019-05-21T10:16:02.617Z,14.50
2019-05-21T10:18:33.217Z,14.80
2019-05-21T10:21:03.886Z,14.50
2019-05-21T10:23:34.543Z,14.80
2019-05-21T10:26:06.096Z,14.40
2019-05-21T10:28:36.339Z,14.50
2019-05-21T10:31:08.611Z,14.40
2019-05-21T10:33:38.865Z,14.50
2019-05-21T10:36:09.183Z,14.50
2019-05-21T10:38:39.416Z,14.50
2019-05-21T10:41:10.932Z,14.60
2019-05-21T10:43:41.130Z,14.50
2019-05-21T10:46:11.539Z,14.40
2019-05-21T10:48:41.873Z,14.50
2019-05-21T10:51:12.657Z,14.60
2019-05-21T10:53:42.979Z,14.60
2019-05-21T10:56:13.470Z,14.60
2019-05-21T10:58:43.682Z,14.80
2019-05-21T11:01:41.921Z,14.80
2019-05-21T11:04:26.738Z,14.70
2019-05-21T11:06:57.299Z,14.60
2019-05-21T11:09:28.034Z,14.80
2019-05-21T11:11:58.394Z,14.60
2019-05-21T11:14:29.228Z,15.00
2019-05-21T11:16:59.459Z,14.80
2019-05-21T11:19:30.030Z,14.60
2019-05-21T11:22:02.934Z,14.70
2019-05-21T11:24:33.246Z,14.60
2019-05-21T11:27:04.970Z,14.60
2019-05-21T11:29:35.269Z,14.70
2019-05-21T11:32:05.514Z,14.60
2019-05-21T11:34:36.487Z,14.70
2019-05-21T11:37:07.540Z,15.00
2019-05-21T11:39:37.755Z,15.00
2019-05-21T11:42:07.941Z,15.20
2019-05-21T11:44:38.299Z,15.00
2019-05-21T11:47:08.955Z,15.00
2019-05-21T11:49:39.474Z,15.10
2019-05-21T11:52:09.988Z,15.10
2019-05-21T11:54:40.619Z,15.20
2019-05-21T11:57:11.214Z,15.20
2019-05-21T11:59:41.439Z,15.10
2019-05-21T12:02:11.660Z,15.00
2019-05-21T12:04:41.974Z,14.60
2019-05-21T12:07:12.605Z,14.60
2019-05-21T12:09:43.308Z,14.80
2019-05-21T12:12:13.523Z,14.90
2019-05-21T12:14:43.821Z,15.00
2019-05-21T12:17:14.410Z,15.10
2019-05-21T12:19:44.676Z,15.10
2019-05-21T12:22:14.926Z,15.30
2019-05-21T12:24:45.425Z,15.40
2019-05-21T12:27:15.723Z,15.30
2019-05-21T12:29:46.245Z,15.40
2019-05-21T12:32:20.816Z,15.30
2019-05-21T12:34:50.117Z,15.40
2019-05-21T12:37:21.126Z,15.30
2019-05-21T12:39:51.397Z,15.30
2019-05-21T12:42:21.637Z,15.30
2019-05-21T12:44:51.808Z,15.70
2019-05-21T12:47:22.439Z,15.40
2019-05-21T12:49:52.980Z,15.30
2019-05-21T12:52:23.181Z,15.40
2019-05-21T12:54:55.545Z,15.50
2019-05-21T12:57:26.648Z,15.50
2019-05-21T12:59:57.214Z,15.50
2019-05-21T13:02:27.819Z,15.50
2019-05-21T13:04:58.078Z,15.60
2019-05-21T13:07:28.438Z,15.50
2019-05-21T13:09:59.529Z,15.60
2019-05-21T13:12:29.742Z,15.40
2019-05-21T13:15:00.321Z,15.30
2019-05-21T13:17:30.632Z,15.50
2019-05-21T13:20:00.865Z,15.50
2019-05-21T13:22:31.220Z,15.60
2019-05-21T13:25:01.599Z,15.60
2019-05-21T13:27:31.856Z,15.70
2019-05-21T13:30:04.349Z,15.80
2019-05-21T13:32:35.239Z,15.70
2019-05-21T13:35:07.094Z,15.90
2019-05-21T13:37:41.122Z,15.90
2019-05-21T13:40:12.534Z,16.00
2019-05-21T13:42:43.179Z,15.90
2019-05-21T13:45:13.503Z,16.00
2019-05-21T13:47:44.131Z,16.10
2019-05-21T13:50:14.984Z,16.10
2019-05-21T13:52:45.727Z,16.00
2019-05-21T13:55:16.125Z,16.10
2019-05-21T13:57:46.753Z,16.20
2019-05-21T14:00:24.132Z,16.40
2019-05-21T14:02:55.037Z,16.10
2019-05-21T14:05:25.654Z,16.10
2019-05-21T14:07:56.220Z,16.10
2019-05-21T14:10:27.516Z,16.00
2019-05-21T14:12:58.128Z,16.00
2019-05-21T14:15:28.421Z,16.20
2019-05-21T14:17:58.732Z,16.30
2019-05-21T14:20:29.124Z,16.30
2019-05-21T14:23:00.233Z,16.30
2019-05-21T14:25:30.565Z,16.50
2019-05-21T14:28:00.983Z,16.40
2019-05-21T14:30:31.633Z,16.50
2019-05-21T14:33:01.941Z,16.50
2019-05-21T14:35:32.168Z,16.40
2019-05-21T14:38:02.347Z,16.50
2019-05-21T14:40:34.227Z,16.40
2019-05-21T14:43:04.997Z,16.50
2019-05-21T14:45:35.712Z,16.50
2019-05-21T14:48:06.120Z,16.50
2019-05-21T14:50:36.382Z,16.40
2019-05-21T14:53:07.992Z,16.30
2019-05-21T14:55:38.640Z,16.20
2019-05-21T14:58:08.886Z,16.20
2019-05-21T15:00:39.353Z,16.40
2019-05-21T15:03:24.325Z,16.60
2019-05-21T15:05:42.966Z,16.50
2019-05-21T15:08:13.556Z,16.70
2019-05-21T15:10:48.986Z,16.60
2019-05-21T15:13:15.888Z,16.60
2019-05-21T15:15:47.585Z,16.50
2019-05-21T15:18:22.019Z,16.30
2019-05-21T15:20:59.204Z,16.40
2019-05-21T15:23:30.368Z,16.40
2019-05-21T15:26:00.581Z,16.50
2019-05-21T15:28:30.833Z,16.40
2019-05-21T15:31:01.398Z,16.60
2019-05-21T15:33:31.561Z,16.40
2019-05-21T15:36:01.819Z,16.40
2019-05-21T15:38:48.498Z,16.30
2019-05-21T15:41:11.586Z,16.30
2019-05-21T15:43:36.820Z,16.30
2019-05-21T15:46:07.007Z,16.10
2019-05-21T15:48:37.294Z,16.10
2019-05-21T15:51:07.642Z,16.00
2019-05-21T15:53:38.828Z,16.10
2019-05-21T15:56:09.721Z,16.50
2019-05-21T15:58:39.982Z,16.30
2019-05-21T16:01:10.524Z,16.50
2019-05-21T16:03:40.806Z,16.50
2019-05-21T16:06:11.589Z,16.40
2019-05-21T16:08:42.130Z,16.30
2019-05-21T16:11:27.403Z,16.30
2019-05-21T16:13:45.307Z,16.20
2019-05-21T16:16:15.602Z,16.00
2019-05-21T16:18:45.786Z,16.00
2019-05-21T16:21:15.983Z,15.90
2019-05-21T16:23:46.339Z,15.80
2019-05-21T16:26:16.572Z,15.90
2019-05-21T16:28:47.815Z,15.80
2019-05-21T16:31:18.043Z,16.00
2019-05-21T16:33:48.633Z,15.90
2019-05-21T16:36:18.990Z,15.90
2019-05-21T16:38:49.356Z,15.80
2019-05-21T16:41:19.958Z,15.80
2019-05-21T16:43:50.210Z,15.80
2019-05-21T16:46:20.580Z,15.80
2019-05-21T16:48:50.914Z,16.00
2019-05-21T16:51:21.472Z,16.00
2019-05-21T16:53:51.851Z,15.90
2019-05-21T16:56:22.572Z,16.20
2019-05-21T16:58:53.711Z,16.40
2019-05-21T17:01:24.040Z,16.30
2019-05-21T17:04:00.033Z,16.30
2019-05-21T17:06:26.523Z,16.40
2019-05-21T17:08:56.970Z,16.20
2019-05-21T17:11:27.378Z,16.10
2019-05-21T17:13:57.995Z,16.00
2019-05-21T17:16:28.203Z,15.80
2019-05-21T17:18:58.420Z,15.60
2019-05-21T17:21:28.694Z,15.50
2019-05-21T17:23:59.486Z,15.60
2019-05-21T17:26:29.631Z,15.40
2019-05-21T17:28:59.876Z,15.30
2019-05-21T17:31:30.145Z,15.30
2019-05-21T17:34:02.364Z,15.60
2019-05-21T17:36:32.984Z,15.40
2019-05-21T17:39:04.450Z,15.30
2019-05-21T17:41:34.778Z,15.00
2019-05-21T17:44:05.087Z,14.90
2019-05-21T17:46:35.452Z,14.70
2019-05-21T17:49:05.665Z,14.90
2019-05-21T17:51:35.952Z,14.70
2019-05-21T17:54:06.231Z,14.60
2019-05-21T17:56:36.489Z,14.50
2019-05-21T17:59:06.737Z,14.80
2019-05-21T18:01:37.104Z,14.50
2019-05-21T18:04:08.356Z,14.60
2019-05-21T18:06:39.140Z,14.50
2019-05-21T18:09:13.712Z,14.40
2019-05-21T18:11:44.874Z,14.30
2019-05-21T18:14:15.954Z,14.30
2019-05-21T18:16:46.476Z,14.30
2019-05-21T18:19:16.989Z,14.50
2019-05-21T18:21:48.175Z,14.20
2019-05-21T18:24:18.846Z,14.40
2019-05-21T18:26:49.470Z,14.00
2019-05-21T18:29:19.764Z,14.20
2019-05-21T18:31:50.031Z,14.20
2019-05-21T18:34:20.666Z,13.90
2019-05-21T18:36:50.978Z,13.90
2019-05-21T18:39:21.439Z,14.10
2019-05-21T18:41:51.964Z,14.10
2019-05-21T18:44:22.213Z,13.60
2019-05-21T18:46:52.740Z,13.80
2019-05-21T18:49:23.252Z,13.60
2019-05-21T18:51:53.522Z,13.50
2019-05-21T18:54:23.624Z,13.50
2019-05-21T18:56:54.130Z,13.60
2019-05-21T18:59:24.336Z,13.10
2019-05-21T19:01:54.804Z,13.50
2019-05-21T19:04:25.112Z,13.60
2019-05-21T19:06:55.300Z,13.20
2019-05-21T19:09:25.515Z,13.10
2019-05-21T19:11:55.837Z,13.00
2019-05-21T19:14:26.051Z,12.90
2019-05-21T19:16:56.277Z,12.90
2019-05-21T19:19:26.605Z,12.80
2019-05-21T19:21:56.810Z,12.80
2019-05-21T19:24:27.102Z,12.50
2019-05-21T19:26:57.644Z,12.60
2019-05-21T19:29:28.489Z,12.60
2019-05-21T19:31:58.683Z,12.60
2019-05-21T19:34:29.208Z,12.40
2019-05-21T19:36:59.954Z,12.40
2019-05-21T19:39:31.834Z,12.30
2019-05-21T19:42:02.081Z,12.30
2019-05-21T19:44:32.416Z,12.20
2019-05-21T19:47:03.068Z,12.20
2019-05-21T19:49:34.097Z,12.20
2019-05-21T19:52:04.802Z,12.10
2019-05-21T19:54:35.019Z,12.10
2019-05-21T19:57:05.477Z,12.10
2019-05-21T19:59:35.703Z,12.00
2019-05-21T20:02:08.588Z,12.00
2019-05-21T20:04:39.161Z,12.10
2019-05-21T20:07:11.871Z,11.90
2019-05-21T20:09:42.089Z,12.00
2019-05-21T20:12:14.982Z,11.80
2019-05-21T20:14:46.971Z,12.00
2019-05-21T20:17:17.787Z,11.80
2019-05-21T20:19:49.980Z,11.70
2019-05-21T20:22:21.849Z,12.10
2019-05-21T20:24:52.453Z,11.80
2019-05-21T20:27:22.779Z,11.60
2019-05-21T20:29:53.278Z,11.60
2019-05-21T20:32:27.327Z,11.60
2019-05-21T20:34:58.086Z,11.50
2019-05-21T20:37:31.869Z,11.50
2019-05-21T20:40:02.241Z,11.50
2019-05-21T20:42:33.117Z,11.60
2019-05-21T20:45:04.941Z,11.70
2019-05-21T20:47:35.087Z,11.40
2019-05-21T20:50:06.101Z,11.20
2019-05-21T20:52:36.970Z,11.30
2019-05-21T20:55:09.245Z,11.20
2019-05-21T20:57:39.712Z,11.20
2019-05-21T21:00:12.938Z,11.20
2019-05-21T21:02:43.936Z,11.20
2019-05-21T21:05:14.624Z,11.10
2019-05-21T21:07:44.859Z,11.20
2019-05-21T21:10:15.196Z,11.00
2019-05-21T21:12:46.179Z,11.00
2019-05-21T21:15:17.477Z,11.00
2019-05-21T21:17:48.312Z,10.90
2019-05-21T21:20:18.917Z,10.90
2019-05-21T21:22:49.531Z,11.20
2019-05-21T21:25:24.536Z,11.10
2019-05-21T21:27:54.931Z,10.90
2019-05-21T21:30:25.978Z,10.80
2019-05-21T21:32:56.830Z,11.10
2019-05-21T21:35:27.686Z,10.90
2019-05-21T21:37:57.904Z,10.80
2019-05-21T21:40:28.322Z,10.70
2019-05-21T21:42:58.927Z,10.80
2019-05-21T21:45:29.171Z,11.00
2019-05-21T21:47:59.688Z,10.70
2019-05-21T21:50:32.432Z,10.80
2019-05-21T21:53:04.413Z,10.60
2019-05-21T21:55:35.133Z,10.40
2019-05-21T21:58:05.898Z,10.70
2019-05-21T22:01:37.670Z,10.70
2019-05-21T22:04:10.656Z,10.50
2019-05-21T22:06:43.760Z,10.50
2019-05-21T22:09:41.677Z,10.50
2019-05-21T22:12:16.746Z,10.50
2019-05-21T22:14:52.471Z,10.50
2019-05-21T22:17:22.822Z,10.00
2019-05-21T22:19:53.310Z,10.20
2019-05-21T22:22:23.504Z,10.10
2019-05-21T22:24:53.682Z,10.30
2019-05-21T22:27:29.457Z,10.30
2019-05-21T22:30:00.132Z,10.20
2019-05-21T22:32:30.503Z,10.00
2019-05-21T22:35:00.965Z,9.90
2019-05-21T22:37:31.280Z,9.70
2019-05-21T22:40:01.920Z,9.70
2019-05-21T22:42:32.636Z,9.70
2019-05-21T22:45:08.806Z,9.80
2019-05-21T22:47:36.587Z,10.00
2019-05-21T22:50:08.375Z,9.70
2019-05-21T22:52:38.551Z,9.70
2019-05-21T22:55:08.800Z,9.80
2019-05-21T22:57:39.456Z,9.80
2019-05-21T23:00:11.044Z,9.80
2019-05-21T23:02:42.666Z,9.50
2019-05-21T23:05:13.252Z,9.50
2019-05-21T23:07:43.439Z,9.40
2019-05-21T23:10:15.307Z,9.60
2019-05-21T23:12:45.655Z,9.40
2019-05-21T23:15:25.080Z,9.40
2019-05-21T23:17:48.672Z,9.80
2019-05-21T23:20:20.724Z,9.70
2019-05-21T23:22:55.128Z,9.50
2019-05-21T23:25:27.608Z,9.40
2019-05-21T23:27:59.117Z,9.60
2019-05-21T23:30:29.446Z,9.50
2019-05-21T23:33:04.173Z,9.70
2019-05-21T23:35:36.870Z,9.90
2019-05-21T23:38:09.233Z,9.80
2019-05-21T23:40:41.962Z,9.60
2019-05-21T23:43:13.115Z,9.40
2019-05-21T23:45:43.691Z,9.10
2019-05-21T23:48:14.488Z,9.50
2019-05-21T23:50:46.328Z,9.40
2019-05-21T23:53:16.964Z,9.20
2019-05-21T23:55:47.450Z,9.40
2019-05-21T23:58:18.981Z,9.00
